Time;durP1;ratioP1;P1;durP2;ratioP2;P2;SDS_P1;SDS_P2;PMS_P1;PMS_P2;Temp;Humidity;BMP_temperature;BMP_pressure;BME280_temperature;BME280_humidity;BME280_pressure;Samples;Min_cycle;Max_cycle;Signal;HPM_P1;HPM_P2
2022/07/20 00:01:22;;;;;;;2.80;2.05;;;31.60;41.50;;;;;;5066479;28;20045;-79
2022/07/20 00:03:48;;;;;;;3.20;2.00;;;31.60;41.50;;;;;;5074950;28;20035;-80
2022/07/20 00:06:14;;;;;;;3.00;2.00;;;31.50;41.50;;;;;;5072944;28;20037;-80
2022/07/20 00:11:24;;;;;;;2.72;2.08;;;31.40;41.50;;;;;;5056552;28;20052;-79
2022/07/20 00:13:56;;;;;;;2.58;1.95;;;31.40;41.50;;;;;;5075072;28;20447;-79
2022/07/20 00:16:24;;;;;;;3.13;1.80;;;31.30;41.50;;;;;;5067985;28;20020;-79
2022/07/20 00:18:50;;;;;;;3.28;2.05;;;31.30;41.60;;;;;;5062682;28;20021;-80
2022/07/20 00:21:16;;;;;;;3.75;2.05;;;31.20;41.60;;;;;;5072580;28;20094;-79
2022/07/20 00:23:42;;;;;;;2.40;1.95;;;31.20;41.60;;;;;;5067655;28;20024;-79
2022/07/20 00:26:08;;;;;;;2.83;2.17;;;31.10;41.50;;;;;;5067588;28;20030;-79
2022/07/20 00:28:33;;;;;;;3.80;2.00;;;31.10;41.60;;;;;;5050971;28;20032;-79
2022/07/20 00:30:59;;;;;;;2.60;1.98;;;31.10;41.70;;;;;;5053927;28;20473;-79
2022/07/20 00:33:25;;;;;;;3.70;2.03;;;31.10;41.70;;;;;;5072587;28;20032;-79
2022/07/20 00:35:51;;;;;;;2.50;2.00;;;31.00;41.70;;;;;;5070388;28;20480;-80
2022/07/20 00:38:17;;;;;;;3.35;2.15;;;31.00;41.70;;;;;;5069087;28;20036;-82
2022/07/20 00:40:43;;;;;;;2.50;1.90;;;31.00;41.70;;;;;;5049821;28;20047;-80
2022/07/20 00:43:09;;;;;;;3.30;2.10;;;30.90;41.70;;;;;;5067548;28;20029;-79
2022/07/20 00:45:34;;;;;;;2.63;2.03;;;30.90;41.70;;;;;;5073445;28;20162;-79
2022/07/20 00:48:00;;;;;;;2.55;1.98;;;30.80;41.80;;;;;;5053366;28;20028;-80
2022/07/20 00:50:26;;;;;;;2.50;2.00;;;30.80;41.80;;;;;;5069673;28;20033;-80
2022/07/20 00:52:52;;;;;;;3.10;2.20;;;30.80;41.80;;;;;;5070606;28;20155;-79
2022/07/20 00:55:18;;;;;;;3.20;2.00;;;30.70;41.70;;;;;;5073037;28;20024;-80
2022/07/20 00:57:44;;;;;;;3.65;1.98;;;30.60;41.60;;;;;;5067930;28;20376;-83
2022/07/20 01:00:12;;;;;;;3.45;2.50;;;30.60;41.70;;;;;;5070159;28;20056;-80
2022/07/20 01:02:39;;;;;;;2.55;2.00;;;30.50;41.70;;;;;;5052230;28;20125;-79
2022/07/20 01:05:06;;;;;;;3.40;1.85;;;30.50;41.70;;;;;;5069557;28;20076;-80
2022/07/20 01:07:31;;;;;;;2.45;2.08;;;30.50;41.80;;;;;;5062090;28;20038;-78
2022/07/20 01:09:57;;;;;;;3.58;2.10;;;30.40;41.70;;;;;;5066463;28;20036;-80
2022/07/20 01:12:23;;;;;;;2.75;2.00;;;30.40;41.80;;;;;;5052514;28;20037;-80
2022/07/20 01:14:54;;;;;;;2.25;1.88;;;30.40;41.80;;;;;;5070329;28;20060;-79
2022/07/20 01:17:19;;;;;;;2.88;2.10;;;30.30;41.80;;;;;;5075341;28;20037;-81
2022/07/20 01:19:46;;;;;;;2.78;2.17;;;30.30;41.80;;;;;;5067667;28;20074;-82
2022/07/20 01:22:11;;;;;;;2.72;2.00;;;30.30;41.90;;;;;;5059427;28;20043;-80
2022/07/20 01:24:37;;;;;;;2.05;1.85;;;30.20;41.90;;;;;;5071363;28;20377;-79
2022/07/20 01:27:04;;;;;;;2.45;2.00;;;30.20;41.90;;;;;;5071602;28;20056;-80
2022/07/20 01:29:30;;;;;;;2.42;1.92;;;30.10;41.90;;;;;;5051546;28;20083;-80
2022/07/20 01:31:56;;;;;;;2.63;1.85;;;30.10;41.90;;;;;;5059123;28;20032;-80
2022/07/20 01:34:22;;;;;;;3.10;2.15;;;30.00;41.90;;;;;;5073085;28;20077;-80
2022/07/20 01:36:47;;;;;;;2.67;2.20;;;30.00;41.90;;;;;;5046069;28;20063;-85
2022/07/20 01:39:14;;;;;;;3.40;2.40;;;30.00;42.00;;;;;;5067850;28;20035;-80
2022/07/20 01:41:40;;;;;;;2.70;1.88;;;29.90;41.90;;;;;;5074446;28;20036;-82
2022/07/20 01:44:06;;;;;;;3.13;2.20;;;29.90;42.00;;;;;;5074729;28;20165;-79
2022/07/20 01:46:32;;;;;;;2.50;1.80;;;29.90;42.70;;;;;;5074185;28;20830;-80
2022/07/20 01:48:58;;;;;;;2.60;1.92;;;29.80;42.00;;;;;;5076665;28;20028;-81
2022/07/20 01:51:23;;;;;;;4.03;2.25;;;29.80;42.10;;;;;;5057085;28;20370;-80
2022/07/20 01:53:49;;;;;;;3.40;2.13;;;29.80;42.10;;;;;;5082608;28;20041;-82
2022/07/20 01:56:15;;;;;;;3.55;2.38;;;29.70;42.10;;;;;;5074256;28;20396;-80
2022/07/20 01:58:40;;;;;;;4.00;2.33;;;29.70;42.10;;;;;;5050266;28;20039;-80
2022/07/20 02:01:06;;;;;;;3.17;2.15;;;29.70;42.20;;;;;;5054376;28;20475;-80
2022/07/20 02:03:32;;;;;;;2.40;2.08;;;29.60;42.10;;;;;;5084580;28;20077;-79
2022/07/20 02:05:58;;;;;;;2.47;2.03;;;29.60;42.10;;;;;;5057156;28;20024;-80
2022/07/20 02:08:25;;;;;;;2.75;2.13;;;29.50;42.10;;;;;;5072360;28;20051;-80
2022/07/20 02:10:52;;;;;;;3.05;2.08;;;29.50;42.20;;;;;;5075381;28;20008;-81
2022/07/20 02:13:18;;;;;;;2.58;1.95;;;29.40;42.20;;;;;;5056528;28;20032;-82
2022/07/20 02:18:28;;;;;;;2.60;1.90;;;29.30;42.20;;;;;;5068396;28;20039;-79
2022/07/20 02:20:53;;;;;;;2.65;2.05;;;29.30;42.20;;;;;;5064096;28;20044;-79
2022/07/20 02:23:19;;;;;;;2.20;1.90;;;29.30;42.30;;;;;;5055225;28;20037;-79
2022/07/20 02:25:45;;;;;;;2.28;1.88;;;29.30;42.30;;;;;;5075220;28;20064;-82
2022/07/20 02:28:10;;;;;;;3.45;2.30;;;29.20;42.30;;;;;;5072857;28;20039;-80
2022/07/20 02:30:38;;;;;;;4.10;2.17;;;29.20;42.30;;;;;;5036446;28;20027;-80
2022/07/20 02:33:04;;;;;;;4.40;2.28;;;29.10;42.30;;;;;;5072896;28;20036;-79
2022/07/20 02:35:30;;;;;;;2.95;2.10;;;29.10;42.40;;;;;;5065169;28;20036;-79
2022/07/20 02:37:55;;;;;;;2.35;1.83;;;29.10;42.40;;;;;;5081545;28;20123;-80
2022/07/20 02:40:21;;;;;;;2.88;2.05;;;29.00;42.40;;;;;;5055770;28;20093;-80
2022/07/20 02:42:47;;;;;;;3.00;1.98;;;29.00;42.40;;;;;;5035428;28;20041;-78
2022/07/20 02:45:12;;;;;;;3.63;2.22;;;28.90;42.40;;;;;;5051406;28;20145;-79
2022/07/20 02:47:45;;;;;;;3.35;2.28;;;28.90;42.50;;;;;;5073958;28;20477;-78
2022/07/20 02:50:12;;;;;;;3.10;2.22;;;28.90;42.50;;;;;;5068525;28;20039;-80
2022/07/20 02:52:39;;;;;;;2.20;1.98;;;28.80;42.50;;;;;;5071686;28;20067;-79
2022/07/20 02:55:06;;;;;;;3.30;2.25;;;28.80;42.60;;;;;;5079919;28;20111;-79
2022/07/20 02:57:32;;;;;;;2.78;2.10;;;28.80;42.60;;;;;;5039810;28;20028;-79
2022/07/20 02:59:57;;;;;;;2.38;1.90;;;28.80;42.70;;;;;;5055006;28;20048;-79
2022/07/20 03:02:23;;;;;;;3.58;2.05;;;28.70;42.60;;;;;;5063104;28;20090;-78
2022/07/20 03:04:49;;;;;;;3.10;2.10;;;28.70;42.70;;;;;;5072675;28;20032;-79
2022/07/20 03:07:14;;;;;;;2.92;2.13;;;28.60;42.70;;;;;;5069953;28;20476;-79
2022/07/20 03:09:40;;;;;;;2.15;1.88;;;28.60;42.70;;;;;;5053851;28;20116;-78
2022/07/20 03:12:06;;;;;;;3.67;2.40;;;28.50;42.70;;;;;;5070855;28;20534;-78
2022/07/20 03:14:32;;;;;;;2.58;1.92;;;28.50;42.70;;;;;;5069327;28;20032;-79
2022/07/20 03:16:58;;;;;;;3.15;2.30;;;28.50;42.80;;;;;;5073083;28;20035;-82
2022/07/20 03:19:23;;;;;;;2.17;1.90;;;28.40;42.80;;;;;;5075040;28;20028;-78
2022/07/20 03:21:49;;;;;;;2.90;2.03;;;28.40;42.80;;;;;;5047285;28;20056;-78
2022/07/20 03:24:15;;;;;;;2.42;1.92;;;28.40;42.80;;;;;;5055237;28;20029;-79
2022/07/20 03:26:40;;;;;;;3.28;2.15;;;28.30;42.80;;;;;;5071170;28;20033;-79
2022/07/20 03:29:06;;;;;;;2.45;1.95;;;28.30;42.90;;;;;;5050818;28;20115;-78
2022/07/20 03:31:32;;;;;;;2.72;2.00;;;28.30;42.90;;;;;;5073493;28;20472;-78
2022/07/20 03:33:57;;;;;;;2.70;2.13;;;28.20;42.90;;;;;;5071418;28;20396;-79
2022/07/20 03:36:23;;;;;;;3.13;2.05;;;28.20;43.00;;;;;;5071173;28;20032;-79
2022/07/20 03:38:49;;;;;;;2.50;2.00;;;28.20;43.00;;;;;;5071853;28;20385;-79
2022/07/20 03:41:15;;;;;;;2.65;1.88;;;28.10;43.00;;;;;;5052542;28;20056;-79
2022/07/20 03:43:40;;;;;;;2.78;2.22;;;28.10;43.00;;;;;;5057793;28;20111;-78
2022/07/20 03:46:06;;;;;;;3.13;2.00;;;28.10;43.10;;;;;;5054648;28;20032;-78
2022/07/20 03:48:32;;;;;;;3.70;2.28;;;28.00;43.00;;;;;;5067799;28;20033;-78
2022/07/20 03:50:57;;;;;;;2.95;2.30;;;28.00;43.10;;;;;;5047629;28;20033;-79
2022/07/20 03:53:23;;;;;;;2.90;2.25;;;28.00;43.10;;;;;;5067698;28;20029;-79
2022/07/20 03:55:49;;;;;;;2.63;1.90;;;27.90;43.10;;;;;;5065900;28;20039;-80
2022/07/20 03:58:14;;;;;;;2.28;1.90;;;27.90;43.20;;;;;;5056790;28;20029;-78
2022/07/20 04:00:40;;;;;;;2.63;2.05;;;27.90;43.20;;;;;;5038857;28;20049;-78
2022/07/20 04:03:06;;;;;;;3.25;2.08;;;27.80;43.20;;;;;;5038274;28;20028;-78
2022/07/20 04:05:32;;;;;;;3.67;2.13;;;27.80;43.20;;;;;;5054269;28;20081;-78
2022/07/20 04:07:57;;;;;;;2.17;1.98;;;27.80;43.30;;;;;;5056013;28;20775;-80
2022/07/20 04:10:23;;;;;;;2.90;2.20;;;27.70;43.30;;;;;;5067560;28;20055;-79
2022/07/20 04:12:49;;;;;;;2.47;2.05;;;27.70;43.30;;;;;;5071122;28;20025;-79
2022/07/20 04:15:14;;;;;;;2.65;2.13;;;27.70;43.40;;;;;;5070362;28;20036;-79
2022/07/20 04:17:41;;;;;;;2.38;2.00;;;27.60;43.40;;;;;;5038579;28;20611;-80
2022/07/20 04:20:08;;;;;;;2.45;1.90;;;27.60;43.40;;;;;;5070896;28;20032;-81
2022/07/20 04:22:33;;;;;;;2.95;2.03;;;27.60;43.40;;;;;;5073122;28;20031;-80
2022/07/20 04:24:59;;;;;;;3.97;2.20;;;27.60;43.50;;;;;;5053660;28;20044;-79
2022/07/20 04:27:25;;;;;;;3.15;2.40;;;27.50;43.50;;;;;;5071097;28;20036;-79
2022/07/20 04:29:50;;;;;;;2.55;1.98;;;27.50;43.50;;;;;;5052799;28;20032;-79
2022/07/20 04:32:16;;;;;;;2.67;2.13;;;27.50;43.60;;;;;;5036720;28;20442;-80
2022/07/20 04:34:42;;;;;;;3.20;2.42;;;27.40;43.50;;;;;;5052906;28;20037;-79
2022/07/20 04:37:08;;;;;;;3.50;2.25;;;27.40;43.50;;;;;;5066507;28;20033;-79
2022/07/20 04:39:34;;;;;;;3.58;2.33;;;27.40;43.60;;;;;;5051727;28;20036;-81
2022/07/20 04:42:00;;;;;;;4.60;2.42;;;27.40;43.70;;;;;;5062541;28;20107;-79
2022/07/20 04:44:26;;;;;;;3.72;2.60;;;27.40;43.70;;;;;;5053447;28;20156;-80
2022/07/20 04:46:52;;;;;;;4.13;2.60;;;27.40;43.70;;;;;;5064629;28;20032;-80
2022/07/20 04:49:17;;;;;;;3.38;2.47;;;27.30;43.70;;;;;;5054423;28;20652;-79
2022/07/20 04:51:43;;;;;;;4.90;2.90;;;27.30;43.80;;;;;;5069532;28;20040;-80
2022/07/20 04:54:10;;;;;;;4.60;3.05;;;27.30;43.80;;;;;;5071077;28;20032;-80
2022/07/20 04:56:36;;;;;;;4.22;3.00;;;27.20;43.80;;;;;;5047741;28;20060;-80
2022/07/20 04:59:02;;;;;;;4.82;3.67;;;27.20;43.90;;;;;;5078712;28;20029;-81
2022/07/20 05:01:28;;;;;;;5.60;3.40;;;27.20;43.90;;;;;;5079988;28;20848;-79
2022/07/20 05:03:54;;;;;;;5.22;3.63;;;27.20;44.00;;;;;;5058730;28;20039;-79
2022/07/20 05:06:20;;;;;;;5.53;3.70;;;27.20;44.10;;;;;;5042958;28;20047;-79
2022/07/20 05:08:45;;;;;;;4.80;3.60;;;27.10;44.00;;;;;;5056696;28;20040;-80
2022/07/20 05:11:12;;;;;;;5.72;3.83;;;27.10;44.10;;;;;;5072657;28;20032;-79
2022/07/20 05:13:38;;;;;;;5.07;3.85;;;27.10;44.10;;;;;;5081814;28;20476;-79
2022/07/20 05:16:05;;;;;;;4.70;3.67;;;27.10;44.20;;;;;;5081950;28;20511;-79
2022/07/20 05:18:31;;;;;;;5.03;3.90;;;27.10;44.30;;;;;;5073070;28;20021;-80
2022/07/20 05:20:57;;;;;;;5.78;4.13;;;27.10;44.30;;;;;;5059904;28;20523;-81
2022/07/20 05:23:23;;;;;;;5.65;3.85;;;27.00;44.30;;;;;;5069345;28;20020;-84
2022/07/20 05:25:49;;;;;;;5.40;4.00;;;27.00;44.30;;;;;;5072785;28;20036;-84
2022/07/20 05:28:18;;;;;;;6.13;4.60;;;27.00;44.40;;;;;;5071430;28;20097;-80
2022/07/20 05:30:47;;;;;;;6.55;4.50;;;27.00;44.40;;;;;;5058744;28;20044;-80
2022/07/20 05:33:14;;;;;;;6.15;4.60;;;27.00;44.50;;;;;;5076916;28;20059;-80
2022/07/20 05:35:40;;;;;;;6.95;5.13;;;27.00;44.50;;;;;;5076204;28;20380;-80
2022/07/20 05:38:06;;;;;;;6.50;5.32;;;26.90;44.50;;;;;;5084267;28;20075;-80
2022/07/20 05:40:31;;;;;;;7.03;5.03;;;26.90;44.60;;;;;;5076644;28;20452;-79
2022/07/20 05:42:57;;;;;;;6.80;5.55;;;26.90;44.60;;;;;;5077954;28;20036;-80
2022/07/20 05:45:23;;;;;;;7.05;5.47;;;26.90;44.70;;;;;;5076045;28;20480;-80
2022/07/20 05:47:49;;;;;;;6.88;5.78;;;26.90;44.70;;;;;;5075354;28;20477;-81
2022/07/20 05:50:14;;;;;;;6.57;5.50;;;26.90;44.70;;;;;;5059396;28;20088;-78
2022/07/20 05:52:40;;;;;;;7.22;5.65;;;26.90;44.80;;;;;;5076037;28;20036;-79
2022/07/20 05:55:07;;;;;;;7.32;6.15;;;26.90;44.80;;;;;;5068566;28;20060;-79
2022/07/20 05:57:34;;;;;;;8.05;6.18;;;26.90;44.80;;;;;;5075656;28;20476;-78
2022/07/20 06:00:00;;;;;;;7.40;6.38;;;26.90;44.80;;;;;;5062243;28;20083;-78
2022/07/20 06:02:25;;;;;;;7.50;6.68;;;26.90;44.90;;;;;;5074718;28;20036;-79
2022/07/20 06:04:51;;;;;;;7.65;6.40;;;26.80;44.80;;;;;;5077486;28;20078;-79
2022/07/20 06:07:17;;;;;;;7.47;6.50;;;26.90;44.90;;;;;;5039881;28;20040;-79
2022/07/20 06:09:42;;;;;;;7.35;6.25;;;26.90;45.00;;;;;;5055492;28;20488;-79
2022/07/20 06:12:09;;;;;;;8.13;6.65;;;26.90;45.00;;;;;;5068829;28;20034;-78
2022/07/20 06:14:34;;;;;;;8.10;6.72;;;26.80;44.90;;;;;;5074072;28;20086;-79
2022/07/20 06:17:00;;;;;;;9.48;6.93;;;26.90;45.10;;;;;;5080409;28;20028;-79
2022/07/20 06:19:26;;;;;;;8.02;6.95;;;26.90;45.10;;;;;;5058343;28;20440;-81
2022/07/20 06:21:51;;;;;;;8.30;7.38;;;26.90;45.20;;;;;;5056807;28;20075;-80
2022/07/20 06:24:17;;;;;;;7.72;6.85;;;26.90;45.20;;;;;;5072421;28;20444;-79
2022/07/20 06:26:43;;;;;;;8.45;7.18;;;26.90;45.30;;;;;;5055512;28;20033;-78
2022/07/20 06:29:09;;;;;;;10.10;8.45;;;26.90;45.30;;;;;;5067569;28;20028;-79
2022/07/20 06:31:34;;;;;;;8.00;7.13;;;26.90;45.40;;;;;;5053812;28;20040;-82
2022/07/20 06:34:01;;;;;;;8.30;7.28;;;26.90;45.40;;;;;;5054989;28;21444;-83
2022/07/20 06:36:27;;;;;;;9.38;7.68;;;26.90;45.40;;;;;;5075310;28;20036;-80
2022/07/20 06:38:54;;;;;;;8.93;7.70;;;26.90;45.40;;;;;;5053801;28;20077;-83
2022/07/20 06:41:19;;;;;;;9.30;7.28;;;26.90;45.40;;;;;;5057274;28;20043;-85
2022/07/20 06:43:45;;;;;;;9.85;8.00;;;26.90;45.40;;;;;;5067090;28;20032;-84
2022/07/20 06:46:11;;;;;;;8.63;7.55;;;26.90;45.50;;;;;;5066500;28;20036;-80
2022/07/20 06:48:37;;;;;;;8.35;7.43;;;26.90;45.50;;;;;;5055574;28;20035;-82
2022/07/20 06:51:03;;;;;;;10.27;8.25;;;26.90;45.60;;;;;;5058163;28;20140;-79
2022/07/20 06:53:29;;;;;;;9.52;7.80;;;27.00;45.60;;;;;;5066352;28;20021;-80
2022/07/20 06:55:54;;;;;;;9.00;7.57;;;27.00;45.70;;;;;;5071684;28;20035;-81
2022/07/20 06:58:20;;;;;;;8.25;6.90;;;27.00;45.70;;;;;;5069836;28;20473;-82
2022/07/20 07:00:46;;;;;;;8.93;7.80;;;27.00;45.70;;;;;;5058091;28;20044;-82
2022/07/20 07:03:12;;;;;;;8.98;7.38;;;27.00;45.70;;;;;;5074217;28;20484;-81
2022/07/20 07:05:37;;;;;;;8.82;7.45;;;27.00;45.70;;;;;;5053628;28;20044;-80
2022/07/20 07:08:03;;;;;;;8.77;7.68;;;27.00;45.80;;;;;;5069419;28;20032;-80
2022/07/20 07:10:29;;;;;;;9.18;7.50;;;27.00;45.80;;;;;;5054804;28;20413;-80
2022/07/20 07:12:55;;;;;;;8.35;7.35;;;27.00;45.80;;;;;;5052134;28;20035;-80
2022/07/20 07:15:20;;;;;;;8.50;7.35;;;27.10;45.90;;;;;;5034522;28;20032;-81
2022/07/20 07:17:46;;;;;;;8.25;7.25;;;27.10;45.90;;;;;;5073627;28;20054;-82
2022/07/20 07:20:12;;;;;;;8.23;7.40;;;27.10;45.90;;;;;;5071760;28;20195;-82
2022/07/20 07:22:38;;;;;;;9.60;8.38;;;27.10;46.00;;;;;;5062757;28;20385;-82
2022/07/20 07:25:04;;;;;;;8.48;7.55;;;27.10;45.90;;;;;;5049101;28;20112;-79
2022/07/20 07:27:30;;;;;;;8.75;7.28;;;27.20;46.00;;;;;;5072235;28;20033;-80
2022/07/20 07:29:56;;;;;;;8.70;7.75;;;27.20;46.00;;;;;;5070444;28;20677;-83
2022/07/20 07:32:22;;;;;;;9.68;7.40;;;27.20;46.00;;;;;;5055387;28;20040;-81
2022/07/20 07:34:47;;;;;;;9.25;7.55;;;27.30;46.10;;;;;;5047288;28;20459;-82
2022/07/20 07:37:13;;;;;;;8.65;7.45;;;27.30;46.10;;;;;;5069549;28;20025;-82
2022/07/20 07:39:39;;;;;;;8.13;7.30;;;27.30;46.10;;;;;;5062822;28;20032;-83
2022/07/20 07:42:05;;;;;;;9.10;7.22;;;27.30;46.10;;;;;;5062056;28;20472;-86
2022/07/20 07:44:31;;;;;;;8.55;7.18;;;27.30;46.10;;;;;;5071216;28;20037;-83
2022/07/20 07:46:56;;;;;;;8.88;7.38;;;27.40;46.10;;;;;;5055252;28;20033;-82
2022/07/20 07:49:22;;;;;;;8.80;7.78;;;27.40;46.10;;;;;;5054476;28;20036;-81
2022/07/20 07:51:48;;;;;;;8.85;7.22;;;27.40;46.10;;;;;;5069710;28;20032;-82
2022/07/20 07:54:14;;;;;;;9.43;7.28;;;27.50;46.20;;;;;;5071872;28;20036;-84
2022/07/20 07:56:41;;;;;;;7.90;7.10;;;27.50;46.10;;;;;;5035617;28;20032;-83
2022/07/20 07:59:07;;;;;;;8.40;6.53;;;27.60;46.20;;;;;;5040135;28;20036;-83
2022/07/20 08:01:34;;;;;;;8.40;7.00;;;27.60;46.10;;;;;;5054370;28;20393;-83
2022/07/20 08:04:01;;;;;;;8.82;7.10;;;27.60;46.10;;;;;;5073888;28;20040;-84
2022/07/20 08:06:27;;;;;;;8.50;6.47;;;27.70;46.10;;;;;;5054312;28;20055;-90
2022/07/20 08:08:53;;;;;;;8.85;6.97;;;27.70;46.00;;;;;;5068312;28;20094;-82
2022/07/20 08:11:18;;;;;;;7.28;6.50;;;27.80;46.10;;;;;;5049914;28;20122;-85
2022/07/20 08:13:44;;;;;;;7.65;6.78;;;27.80;46.00;;;;;;5053034;28;20037;-88
2022/07/20 08:16:10;;;;;;;7.68;6.43;;;27.80;46.00;;;;;;5053547;28;20060;-85
2022/07/20 08:18:36;;;;;;;8.25;6.63;;;27.90;46.00;;;;;;5071229;28;20040;-83
2022/07/20 08:21:02;;;;;;;8.48;7.07;;;28.00;46.30;;;;;;5053790;28;20485;-83
2022/07/20 08:23:27;;;;;;;8.23;6.63;;;28.00;45.90;;;;;;5050005;28;20070;-82
2022/07/20 08:25:53;;;;;;;7.85;6.63;;;28.10;45.90;;;;;;5030012;28;20053;-81
2022/07/20 08:28:21;;;;;;;7.93;6.43;;;28.10;45.90;;;;;;5053885;28;20032;-83
2022/07/20 08:30:50;;;;;;;7.47;6.55;;;28.10;46.50;;;;;;5069677;28;20099;-83
2022/07/20 08:33:16;;;;;;;7.15;6.32;;;28.20;45.80;;;;;;5070101;28;20057;-84
2022/07/20 08:35:43;;;;;;;7.20;6.22;;;28.30;45.80;;;;;;5067273;28;20350;-83
2022/07/20 08:38:09;;;;;;;7.30;6.10;;;28.40;45.80;;;;;;5054849;28;20025;-85
2022/07/20 08:40:36;;;;;;;7.18;6.10;;;28.40;45.80;;;;;;5033922;28;20033;-83
2022/07/20 08:43:03;;;;;;;7.65;6.10;;;28.50;45.80;;;;;;5067574;28;20036;-84
2022/07/20 08:45:29;;;;;;;7.57;6.03;;;28.50;45.80;;;;;;5050923;28;20473;-88
2022/07/20 08:48:00;;;;;;;7.15;5.93;;;28.50;45.70;;;;;;5054053;28;20456;-81
2022/07/20 08:50:28;;;;;;;6.72;5.80;;;28.60;45.70;;;;;;5069463;28;20029;-85
2022/07/20 08:52:55;;;;;;;7.10;5.93;;;28.70;45.80;;;;;;5064395;28;20458;-83
2022/07/20 08:55:22;;;;;;;7.25;6.22;;;28.70;45.70;;;;;;5048104;28;20136;-83
2022/07/20 08:57:47;;;;;;;7.15;5.60;;;28.80;45.70;;;;;;5054255;28;20020;-83
2022/07/20 09:00:15;;;;;;;6.82;5.90;;;28.80;45.70;;;;;;5068950;28;20055;-83
2022/07/20 09:02:50;;;;;;;7.15;5.57;;;28.90;45.70;;;;;;5068797;28;20101;-88
2022/07/20 09:05:15;;;;;;;7.32;5.63;;;28.90;45.70;;;;;;5068202;28;20025;-82
2022/07/20 09:07:43;;;;;;;7.07;5.32;;;29.00;45.70;;;;;;5046842;28;20096;-88
2022/07/20 09:10:19;;;;;;;6.05;5.13;;;29.00;45.60;;;;;;5063657;28;20074;-82
2022/07/20 09:13:01;;;;;;;6.75;5.43;;;29.10;45.70;;;;;;5065312;28;20029;-83
2022/07/20 09:15:39;;;;;;;6.78;5.75;;;29.10;45.70;;;;;;5076315;28;20445;-83
2022/07/20 09:18:17;;;;;;;5.93;5.30;;;29.20;45.60;;;;;;5065741;28;20052;-83
2022/07/20 09:21:01;;;;;;;7.05;5.47;;;29.30;45.60;;;;;;5080204;28;20111;-82
2022/07/20 09:23:33;;;;;;;5.90;4.93;;;29.30;45.60;;;;;;5069829;28;20055;-82
2022/07/20 09:26:01;;;;;;;5.82;4.82;;;29.40;45.50;;;;;;5062366;28;20518;-82
2022/07/20 09:28:54;;;;;;;5.80;4.90;;;29.40;45.50;;;;;;5053493;28;20020;-80
2022/07/20 09:31:26;;;;;;;6.50;5.03;;;29.50;45.60;;;;;;5046346;28;20507;-81
2022/07/20 09:33:53;;;;;;;6.78;5.53;;;29.60;45.50;;;;;;5067594;28;20538;-79
2022/07/20 09:36:20;;;;;;;5.85;4.78;;;29.70;45.50;;;;;;5069421;28;20052;-78
2022/07/20 09:38:46;;;;;;;5.93;5.03;;;29.70;45.40;;;;;;5049074;28;20397;-82
2022/07/20 09:41:29;;;;;;;5.47;4.72;;;29.80;45.40;;;;;;5047020;28;20037;-78
2022/07/20 09:43:57;;;;;;;5.50;4.65;;;29.90;45.50;;;;;;5072268;28;20036;-79
2022/07/20 09:46:25;;;;;;;5.95;5.07;;;29.90;45.30;;;;;;5075150;28;20361;-79
2022/07/20 09:48:54;;;;;;;6.15;4.72;;;30.00;45.30;;;;;;5070060;28;20033;-79
2022/07/20 09:51:21;;;;;;;6.65;4.40;;;30.10;45.30;;;;;;5072179;28;20040;-79
2022/07/20 09:53:54;;;;;;;5.68;4.45;;;30.20;45.50;;;;;;5050854;28;20025;-78
2022/07/20 09:56:21;;;;;;;6.13;4.75;;;30.20;45.30;;;;;;5075000;28;20036;-80
2022/07/20 09:58:50;;;;;;;5.40;4.18;;;30.30;45.20;;;;;;5073632;28;20373;-80
2022/07/20 10:01:27;;;;;;;6.07;4.43;;;30.40;45.20;;;;;;5076790;28;20040;-80
2022/07/20 10:03:56;;;;;;;5.05;4.07;;;30.50;45.30;;;;;;5088287;28;20037;-80
2022/07/20 10:06:24;;;;;;;5.70;4.32;;;30.50;45.10;;;;;;5071144;28;20044;-84
2022/07/20 10:08:50;;;;;;;5.50;4.50;;;30.60;45.10;;;;;;5072730;28;20496;-80
2022/07/20 10:11:19;;;;;;;5.22;4.10;;;30.70;45.20;;;;;;5056902;28;20039;-80
2022/07/20 10:13:48;;;;;;;4.97;4.07;;;30.80;45.10;;;;;;5069585;28;20032;-82
2022/07/20 10:16:32;;;;;;;5.50;4.25;;;30.80;45.10;;;;;;5061764;28;20063;-80
2022/07/20 10:18:58;;;;;;;;;;;30.90;45.20;;;;;;5068856;28;20081;-80
2022/07/20 10:21:45;;;;;;;5.05;3.58;;;31.00;45.00;;;;;;5087340;28;19920;-80
2022/07/20 10:24:18;;;;;;;5.47;3.50;;;31.10;45.10;;;;;;5073185;28;20070;-79
2022/07/20 10:26:45;;;;;;;4.72;3.40;;;31.10;45.10;;;;;;5073001;28;20376;-81
2022/07/20 10:29:24;;;;;;;5.22;4.10;;;31.20;45.10;;;;;;5071431;28;20078;-81
2022/07/20 10:31:51;;;;;;;5.40;4.03;;;31.20;45.10;;;;;;5071580;28;20044;-82
2022/07/20 10:34:54;;;;;;;5.07;3.88;;;31.40;45.10;;;;;;5071911;28;20029;-83
2022/07/20 10:37:25;;;;;;;4.65;3.60;;;31.40;45.10;;;;;;5043627;28;20074;-79
2022/07/20 10:39:57;;;;;;;4.88;4.07;;;31.50;45.00;;;;;;5055149;28;20032;-80
2022/07/20 10:42:32;;;;;;;5.32;3.97;;;31.60;45.10;;;;;;5065240;28;20477;-81
2022/07/20 10:45:16;;;;;;;5.20;4.07;;;31.70;45.10;;;;;;5056539;28;20067;-79
2022/07/20 10:47:53;;;;;;;5.82;3.60;;;31.80;45.10;;;;;;5065234;28;20024;-81
2022/07/20 10:50:28;;;;;;;4.68;3.70;;;31.80;45.00;;;;;;5070753;28;20024;-80
2022/07/20 10:52:57;;;;;;;4.70;3.60;;;31.90;45.00;;;;;;5066687;28;20116;-80
2022/07/20 10:55:35;;;;;;;4.57;3.80;;;32.00;45.00;;;;;;5070726;28;20032;-80
2022/07/20 10:58:06;;;;;;;4.65;3.90;;;32.10;45.10;;;;;;5045969;28;20031;-79
2022/07/20 11:00:35;;;;;;;4.82;3.42;;;32.20;45.00;;;;;;5079513;28;20048;-81
2022/07/20 11:03:03;;;;;;;5.43;3.92;;;32.20;45.00;;;;;;5055684;28;20028;-81
2022/07/20 11:05:29;;;;;;;5.13;3.65;;;32.30;45.00;;;;;;5072710;28;20098;-82
2022/07/20 11:07:55;;;;;;;4.65;3.80;;;32.40;45.00;;;;;;5071809;28;20453;-80
2022/07/20 11:10:25;;;;;;;4.63;3.75;;;32.40;44.90;;;;;;5068483;28;20087;-80
2022/07/20 11:12:59;;;;;;;4.13;3.50;;;32.50;45.00;;;;;;5055850;28;20425;-79
2022/07/20 11:15:43;;;;;;;4.28;3.45;;;32.50;44.90;;;;;;5071283;28;20404;-82
2022/07/20 11:18:10;;;;;;;;;;;32.60;45.00;;;;;;5073371;28;20036;-82
2022/07/20 11:20:46;;;;;;;3.90;3.05;;;32.60;44.90;;;;;;5068426;28;20229;-82
2022/07/20 11:23:13;;;;;;;5.00;3.38;;;32.70;44.90;;;;;;5055879;28;20032;-81
2022/07/20 11:25:45;;;;;;;4.40;3.40;;;32.70;44.90;;;;;;5074067;28;20027;-82
2022/07/20 11:28:13;;;;;;;5.25;3.92;;;32.70;45.00;;;;;;5074152;28;20024;-81
2022/07/20 11:30:39;;;;;;;4.63;3.72;;;32.80;45.00;;;;;;5071975;28;20508;-81
2022/07/20 11:33:05;;;;;;;4.95;3.85;;;32.80;45.00;;;;;;5065257;28;20083;-83
2022/07/20 11:35:31;;;;;;;4.82;3.80;;;32.80;45.00;;;;;;5038415;28;20020;-82
2022/07/20 11:37:56;;;;;;;4.22;3.47;;;32.80;45.00;;;;;;5071463;28;20451;-81
2022/07/20 11:40:23;;;;;;;5.22;3.58;;;32.90;45.10;;;;;;5084179;28;20028;-81
2022/07/20 11:43:10;;;;;;;5.30;3.38;;;32.90;45.10;;;;;;5071667;28;20028;-81
2022/07/20 11:45:37;;;;;;;4.50;3.47;;;32.90;45.30;;;;;;5059054;28;20033;-81
2022/07/20 11:48:26;;;;;;;5.32;3.75;;;33.00;45.20;;;;;;5054753;28;20034;-82
2022/07/20 11:50:52;;;;;;;3.92;2.88;;;33.00;45.30;;;;;;5059335;28;20021;-82
2022/07/20 11:53:27;;;;;;;4.00;3.30;;;33.00;45.20;;;;;;5053633;28;20392;-82
2022/07/20 11:55:54;;;;;;;4.63;3.20;;;33.00;45.30;;;;;;5081245;28;20021;-82
2022/07/20 11:58:35;;;;;;;4.30;3.40;;;33.10;45.40;;;;;;5068959;28;20029;-82
2022/07/20 12:01:06;;;;;;;4.47;3.13;;;33.10;45.50;;;;;;5071137;28;20101;-81
2022/07/20 12:03:39;;;;;;;4.15;3.30;;;33.10;45.40;;;;;;5071316;28;20036;-81
2022/07/20 12:06:09;;;;;;;4.13;3.20;;;33.20;45.50;;;;;;5070794;28;20024;-81
2022/07/20 12:08:35;;;;;;;4.57;3.28;;;33.20;45.50;;;;;;5071155;28;20032;-82
2022/07/20 12:11:02;;;;;;;4.35;3.20;;;33.20;45.50;;;;;;5070797;28;20025;-80
2022/07/20 12:13:29;;;;;;;4.07;2.92;;;33.10;45.50;;;;;;5064794;28;20017;-81
2022/07/20 12:16:05;;;;;;;4.50;3.50;;;33.20;45.60;;;;;;5054729;28;20047;-80
2022/07/20 12:18:39;;;;;;;4.35;3.28;;;33.20;45.60;;;;;;5070746;28;20128;-81
2022/07/20 12:21:06;;;;;;;;;;;33.20;45.70;;;;;;5071774;28;20104;-81
2022/07/20 12:23:33;;;;;;;4.10;2.85;;;33.20;45.60;;;;;;5071480;28;19920;-81
2022/07/20 12:26:00;;;;;;;3.97;2.72;;;33.20;45.60;;;;;;5053579;28;20050;-80
2022/07/20 12:28:31;;;;;;;4.43;3.22;;;33.30;45.80;;;;;;5048129;28;20029;-81
2022/07/20 12:31:20;;;;;;;3.35;2.67;;;33.20;45.80;;;;;;5066127;28;20032;-81
2022/07/20 12:34:12;;;;;;;3.40;3.00;;;33.20;45.80;;;;;;5067396;28;20024;-81
2022/07/20 12:36:40;;;;;;;4.20;2.95;;;33.30;45.90;;;;;;5070339;28;20037;-80
2022/07/20 12:39:11;;;;;;;3.83;3.03;;;33.30;46.40;;;;;;5070405;28;20032;-80
2022/07/20 12:41:40;;;;;;;3.83;2.97;;;33.30;45.80;;;;;;5071408;28;20082;-81
2022/07/20 12:44:26;;;;;;;3.33;2.75;;;33.30;45.80;;;;;;5053369;28;20121;-81
2022/07/20 12:46:54;;;;;;;3.33;2.80;;;33.30;45.80;;;;;;5067437;28;20460;-81
2022/07/20 12:49:27;;;;;;;3.72;2.95;;;33.30;45.70;;;;;;5070398;28;20461;-80
2022/07/20 12:51:54;;;;;;;4.72;3.00;;;33.30;45.70;;;;;;5065961;28;20112;-80
2022/07/20 12:54:21;;;;;;;4.82;3.10;;;33.30;45.60;;;;;;5069703;28;20021;-80
2022/07/20 12:56:47;;;;;;;3.67;2.90;;;33.30;45.60;;;;;;5067200;28;20127;-80